sensor_id;sensor_type;location;lat;lon;timestamp;pressure;altitude;pressure_sealevel;temperature;humidity
6853;BME280;3465;42.144;24.722;2022-07-04T00:00:08;99695.69;;;22.85;57.94
6853;BME280;3465;42.144;24.722;2022-07-04T00:02:34;99701.50;;;22.94;57.42
6853;BME280;3465;42.144;24.722;2022-07-04T00:05:00;99708.88;;;23.08;57.24
6853;BME280;3465;42.144;24.722;2022-07-04T00:07:25;99697.75;;;23.01;56.86
6853;BME280;3465;42.144;24.722;2022-07-04T00:09:51;99696.75;;;23.05;56.76
6853;BME280;3465;42.144;24.722;2022-07-04T00:12:16;99701.06;;;23.06;56.28
6853;BME280;3465;42.144;24.722;2022-07-04T00:14:42;99692.00;;;22.90;56.43
6853;BME280;3465;42.144;24.722;2022-07-04T00:17:07;99696.34;;;22.91;57.07
6853;BME280;3465;42.144;24.722;2022-07-04T00:19:33;99683.38;;;22.87;56.66
6853;BME280;3465;42.144;24.722;2022-07-04T00:21:59;99682.28;;;22.94;56.96
6853;BME280;3465;42.144;24.722;2022-07-04T00:24:24;99677.84;;;22.96;56.29
6853;BME280;3465;42.144;24.722;2022-07-04T00:26:50;99677.09;;;22.92;56.76
6853;BME280;3465;42.144;24.722;2022-07-04T00:29:15;99672.56;;;22.97;56.59
6853;BME280;3465;42.144;24.722;2022-07-04T00:31:41;99681.09;;;23.04;56.29
6853;BME280;3465;42.144;24.722;2022-07-04T00:34:06;99671.97;;;22.89;55.66
6853;BME280;3465;42.144;24.722;2022-07-04T00:36:32;99622.06;;;22.66;57.96
6853;BME280;3465;42.144;24.722;2022-07-04T00:38:57;99681.94;;;23.04;59.91
6853;BME280;3465;42.144;24.722;2022-07-04T00:41:23;99678.56;;;23.01;60.73
6853;BME280;3465;42.144;24.722;2022-07-04T00:44:05;99674.97;;;23.03;60.15
6853;BME280;3465;42.144;24.722;2022-07-04T00:46:31;99670.94;;;22.93;60.82
6853;BME280;3465;42.144;24.722;2022-07-04T00:48:57;99677.00;;;22.67;61.84
6853;BME280;3465;42.144;24.722;2022-07-04T00:51:23;99664.13;;;22.61;61.29
6853;BME280;3465;42.144;24.722;2022-07-04T00:53:50;99663.47;;;22.55;61.66
6853;BME280;3465;42.144;24.722;2022-07-04T00:56:16;99652.94;;;22.56;61.77
6853;BME280;3465;42.144;24.722;2022-07-04T00:58:42;99668.38;;;22.66;61.60
6853;BME280;3465;42.144;24.722;2022-07-04T01:01:07;99646.78;;;22.59;61.97
6853;BME280;3465;42.144;24.722;2022-07-04T01:03:33;99662.94;;;22.72;62.57
6853;BME280;3465;42.144;24.722;2022-07-04T01:05:59;99660.06;;;22.79;62.70
6853;BME280;3465;42.144;24.722;2022-07-04T01:08:25;99654.63;;;22.85;63.04
6853;BME280;3465;42.144;24.722;2022-07-04T01:10:51;99653.97;;;22.79;61.80
6853;BME280;3465;42.144;24.722;2022-07-04T01:13:23;99648.69;;;22.80;63.25
6853;BME280;3465;42.144;24.722;2022-07-04T01:15:49;99658.50;;;22.74;63.65
6853;BME280;3465;42.144;24.722;2022-07-04T01:18:16;99660.59;;;22.62;63.62
6853;BME280;3465;42.144;24.722;2022-07-04T01:20:42;99643.78;;;22.42;64.15
6853;BME280;3465;42.144;24.722;2022-07-04T01:23:07;99639.66;;;22.35;64.60
6853;BME280;3465;42.144;24.722;2022-07-04T01:25:33;99625.13;;;22.25;65.22
6853;BME280;3465;42.144;24.722;2022-07-04T01:27:59;99629.28;;;22.30;65.14
6853;BME280;3465;42.144;24.722;2022-07-04T01:30:26;99631.91;;;22.32;65.96
6853;BME280;3465;42.144;24.722;2022-07-04T01:32:52;99619.19;;;22.20;66.54
6853;BME280;3465;42.144;24.722;2022-07-04T01:35:23;99626.94;;;22.23;67.10
6853;BME280;3465;42.144;24.722;2022-07-04T01:37:49;99633.78;;;22.27;67.34
6853;BME280;3465;42.144;24.722;2022-07-04T01:40:16;99633.03;;;22.23;68.56
6853;BME280;3465;42.144;24.722;2022-07-04T01:42:42;99628.09;;;22.13;68.85
6853;BME280;3465;42.144;24.722;2022-07-04T01:45:09;99617.88;;;22.05;68.79
6853;BME280;3465;42.144;24.722;2022-07-04T01:47:35;99619.72;;;22.02;68.34
6853;BME280;3465;42.144;24.722;2022-07-04T01:50:01;99629.88;;;22.12;68.87
6853;BME280;3465;42.144;24.722;2022-07-04T01:52:27;99622.91;;;22.11;68.41
6853;BME280;3465;42.144;24.722;2022-07-04T01:54:53;99625.41;;;22.16;69.14
6853;BME280;3465;42.144;24.722;2022-07-04T01:57:18;99628.81;;;22.18;68.95
6853;BME280;3465;42.144;24.722;2022-07-04T01:59:44;99617.88;;;22.05;70.44
6853;BME280;3465;42.144;24.722;2022-07-04T02:02:28;99639.75;;;22.03;70.72
6853;BME280;3465;42.144;24.722;2022-07-04T02:04:53;99608.34;;;21.74;71.42
6853;BME280;3465;42.144;24.722;2022-07-04T02:07:19;99617.78;;;21.79;72.36
6853;BME280;3465;42.144;24.722;2022-07-04T02:09:44;99634.47;;;21.74;73.44
6853;BME280;3465;42.144;24.722;2022-07-04T02:12:10;99623.47;;;21.63;74.63
6853;BME280;3465;42.144;24.722;2022-07-04T02:14:54;99629.84;;;21.53;75.09
6853;BME280;3465;42.144;24.722;2022-07-04T02:17:19;99637.00;;;21.46;75.73
6853;BME280;3465;42.144;24.722;2022-07-04T02:19:45;99642.38;;;21.42;75.78
6853;BME280;3465;42.144;24.722;2022-07-04T02:22:10;99639.75;;;21.42;74.99
6853;BME280;3465;42.144;24.722;2022-07-04T02:24:36;99641.38;;;21.46;75.39
6853;BME280;3465;42.144;24.722;2022-07-04T02:27:02;99641.50;;;21.41;75.06
6853;BME280;3465;42.144;24.722;2022-07-04T02:29:27;99640.97;;;21.28;74.98
6853;BME280;3465;42.144;24.722;2022-07-04T02:31:53;99639.31;;;21.24;76.06
6853;BME280;3465;42.144;24.722;2022-07-04T02:34:18;99645.34;;;21.28;77.75
6853;BME280;3465;42.144;24.722;2022-07-04T02:36:44;99658.59;;;21.20;79.53
6853;BME280;3465;42.144;24.722;2022-07-04T02:39:09;99643.06;;;21.16;80.36
6853;BME280;3465;42.144;24.722;2022-07-04T02:41:35;99644.97;;;21.09;80.89
6853;BME280;3465;42.144;24.722;2022-07-04T02:44:01;99641.69;;;21.01;80.78
6853;BME280;3465;42.144;24.722;2022-07-04T02:46:26;99642.66;;;20.97;81.18
6853;BME280;3465;42.144;24.722;2022-07-04T02:48:52;99653.06;;;20.99;81.43
6853;BME280;3465;42.144;24.722;2022-07-04T02:51:17;99648.78;;;20.96;81.56
6853;BME280;3465;42.144;24.722;2022-07-04T02:53:43;99645.47;;;20.88;81.29
6853;BME280;3465;42.144;24.722;2022-07-04T02:56:08;99660.09;;;20.95;81.17
6853;BME280;3465;42.144;24.722;2022-07-04T02:58:34;99664.47;;;20.95;81.45
6853;BME280;3465;42.144;24.722;2022-07-04T03:01:00;99649.94;;;20.83;82.01
6853;BME280;3465;42.144;24.722;2022-07-04T03:03:26;99680.88;;;21.01;81.38
6853;BME280;3465;42.144;24.722;2022-07-04T03:05:51;99668.66;;;21.02;80.69
6853;BME280;3465;42.144;24.722;2022-07-04T03:08:17;99677.19;;;21.08;81.12
6853;BME280;3465;42.144;24.722;2022-07-04T03:10:43;99681.34;;;21.17;82.14
6853;BME280;3465;42.144;24.722;2022-07-04T03:13:08;99690.69;;;21.25;82.11
6853;BME280;3465;42.144;24.722;2022-07-04T03:15:34;99683.59;;;21.31;80.58
6853;BME280;3465;42.144;24.722;2022-07-04T03:17:59;99669.06;;;21.20;81.09
6853;BME280;3465;42.144;24.722;2022-07-04T03:20:25;99680.44;;;21.18;81.31
6853;BME280;3465;42.144;24.722;2022-07-04T03:22:50;99681.34;;;21.17;81.30
6853;BME280;3465;42.144;24.722;2022-07-04T03:25:17;99669.31;;;21.11;81.37
6853;BME280;3465;42.144;24.722;2022-07-04T03:27:42;99675.56;;;21.04;81.58
6853;BME280;3465;42.144;24.722;2022-07-04T03:30:08;99660.91;;;20.99;81.06
6853;BME280;3465;42.144;24.722;2022-07-04T03:32:33;99671.06;;;21.11;81.32
6853;BME280;3465;42.144;24.722;2022-07-04T03:34:59;99672.13;;;21.02;81.60
6853;BME280;3465;42.144;24.722;2022-07-04T03:37:24;99674.66;;;21.05;81.55
6853;BME280;3465;42.144;24.722;2022-07-04T03:39:50;99672.16;;;21.01;81.90
6853;BME280;3465;42.144;24.722;2022-07-04T03:42:15;99666.59;;;20.79;83.53
6853;BME280;3465;42.144;24.722;2022-07-04T03:44:40;99655.09;;;20.86;83.49
6853;BME280;3465;42.144;24.722;2022-07-04T03:47:06;99663.53;;;20.97;83.70
6853;BME280;3465;42.144;24.722;2022-07-04T03:49:31;99670.50;;;20.98;83.53
6853;BME280;3465;42.144;24.722;2022-07-04T03:51:57;99659.41;;;20.89;83.44
6853;BME280;3465;42.144;24.722;2022-07-04T03:54:22;99651.31;;;20.99;82.67
6853;BME280;3465;42.144;24.722;2022-07-04T03:56:48;99667.91;;;20.98;82.63
6853;BME280;3465;42.144;24.722;2022-07-04T03:59:13;99673.03;;;21.01;82.16
6853;BME280;3465;42.144;24.722;2022-07-04T04:01:38;99661.59;;;21.05;81.93
6853;BME280;3465;42.144;24.722;2022-07-04T04:04:04;99666.66;;;21.13;81.88
6853;BME280;3465;42.144;24.722;2022-07-04T04:06:48;99654.69;;;21.04;82.22
6853;BME280;3465;42.144;24.722;2022-07-04T04:09:13;99663.22;;;21.11;82.15
6853;BME280;3465;42.144;24.722;2022-07-04T04:11:43;99673.53;;;21.15;82.16
6853;BME280;3465;42.144;24.722;2022-07-04T04:14:08;99679.75;;;21.10;82.46
6853;BME280;3465;42.144;24.722;2022-07-04T04:16:34;99676.09;;;21.17;82.87
6853;BME280;3465;42.144;24.722;2022-07-04T04:18:59;99665.78;;;21.12;83.40
6853;BME280;3465;42.144;24.722;2022-07-04T04:21:25;99664.63;;;21.24;82.91
6853;BME280;3465;42.144;24.722;2022-07-04T04:23:50;99659.19;;;21.32;82.85
6853;BME280;3465;42.144;24.722;2022-07-04T04:26:16;99671.19;;;21.39;83.05
6853;BME280;3465;42.144;24.722;2022-07-04T04:28:41;99666.75;;;21.41;83.37
6853;BME280;3465;42.144;24.722;2022-07-04T04:31:08;99645.81;;;21.42;83.13
6853;BME280;3465;42.144;24.722;2022-07-04T04:33:35;99668.06;;;21.57;83.28
6853;BME280;3465;42.144;24.722;2022-07-04T04:36:01;99662.03;;;21.55;83.01
6853;BME280;3465;42.144;24.722;2022-07-04T04:38:26;99660.25;;;21.55;83.74
6853;BME280;3465;42.144;24.722;2022-07-04T04:40:51;99658.34;;;21.62;83.45
6853;BME280;3465;42.144;24.722;2022-07-04T04:43:17;99670.28;;;21.72;83.30
6853;BME280;3465;42.144;24.722;2022-07-04T04:45:42;99681.50;;;21.75;83.17
6853;BME280;3465;42.144;24.722;2022-07-04T04:48:08;99672.78;;;21.76;82.58
6853;BME280;3465;42.144;24.722;2022-07-04T04:50:33;99683.72;;;21.90;81.75
6853;BME280;3465;42.144;24.722;2022-07-04T04:53:00;99663.00;;;21.83;81.24
6853;BME280;3465;42.144;24.722;2022-07-04T04:55:25;99688.66;;;22.01;80.51
6853;BME280;3465;42.144;24.722;2022-07-04T04:57:51;99672.66;;;22.10;80.04
6853;BME280;3465;42.144;24.722;2022-07-04T05:00:16;99683.78;;;22.18;80.04
6853;BME280;3465;42.144;24.722;2022-07-04T05:02:42;99675.75;;;22.24;78.42
6853;BME280;3465;42.144;24.722;2022-07-04T05:05:07;99673.78;;;22.32;77.87
6853;BME280;3465;42.144;24.722;2022-07-04T05:07:33;99669.78;;;22.46;77.91
6853;BME280;3465;42.144;24.722;2022-07-04T05:09:59;99672.94;;;22.59;77.37
6853;BME280;3465;42.144;24.722;2022-07-04T05:12:25;99673.69;;;22.62;77.12
6853;BME280;3465;42.144;24.722;2022-07-04T05:14:52;99667.50;;;22.65;77.30
6853;BME280;3465;42.144;24.722;2022-07-04T05:17:17;99668.88;;;22.77;76.44
6853;BME280;3465;42.144;24.722;2022-07-04T05:19:43;99669.13;;;22.95;74.43
6853;BME280;3465;42.144;24.722;2022-07-04T05:22:08;99666.47;;;22.97;73.56
6853;BME280;3465;42.144;24.722;2022-07-04T05:24:36;99677.81;;;22.97;71.75
6853;BME280;3465;42.144;24.722;2022-07-04T05:27:05;99666.13;;;23.07;69.06
6853;BME280;3465;42.144;24.722;2022-07-04T05:29:30;99678.81;;;23.19;68.21
6853;BME280;3465;42.144;24.722;2022-07-04T05:31:56;99670.72;;;23.25;67.78
6853;BME280;3465;42.144;24.722;2022-07-04T05:34:21;99678.09;;;23.40;65.60
6853;BME280;3465;42.144;24.722;2022-07-04T05:36:47;99674.50;;;23.43;65.50
6853;BME280;3465;42.144;24.722;2022-07-04T05:39:12;99678.63;;;23.50;65.16
6853;BME280;3465;42.144;24.722;2022-07-04T05:41:38;99661.56;;;23.38;65.48
6853;BME280;3465;42.144;24.722;2022-07-04T05:44:03;99676.75;;;23.53;65.08
6853;BME280;3465;42.144;24.722;2022-07-04T05:46:29;99675.59;;;23.62;64.61
6853;BME280;3465;42.144;24.722;2022-07-04T05:48:54;99687.06;;;23.82;62.27
6853;BME280;3465;42.144;24.722;2022-07-04T05:51:20;99671.09;;;23.88;62.22
6853;BME280;3465;42.144;24.722;2022-07-04T05:53:45;99684.78;;;23.98;62.50
6853;BME280;3465;42.144;24.722;2022-07-04T05:56:11;99678.47;;;24.04;62.74
6853;BME280;3465;42.144;24.722;2022-07-04T05:58:36;99664.16;;;24.11;63.95
6853;BME280;3465;42.144;24.722;2022-07-04T06:01:02;99676.72;;;24.26;64.21
6853;BME280;3465;42.144;24.722;2022-07-04T06:03:28;99671.91;;;24.37;64.60
6853;BME280;3465;42.144;24.722;2022-07-04T06:05:53;99661.91;;;24.46;62.54
6853;BME280;3465;42.144;24.722;2022-07-04T06:08:19;99684.88;;;24.63;61.61
6853;BME280;3465;42.144;24.722;2022-07-04T06:10:45;99669.00;;;24.66;60.17
6853;BME280;3465;42.144;24.722;2022-07-04T06:13:11;99676.53;;;24.75;59.27
6853;BME280;3465;42.144;24.722;2022-07-04T06:15:37;99678.44;;;24.93;58.66
6853;BME280;3465;42.144;24.722;2022-07-04T06:18:02;99667.91;;;24.93;57.31
6853;BME280;3465;42.144;24.722;2022-07-04T06:20:28;99684.63;;;25.12;57.90
6853;BME280;3465;42.144;24.722;2022-07-04T06:22:54;99680.84;;;25.19;57.44
6853;BME280;3465;42.144;24.722;2022-07-04T06:25:19;99674.31;;;25.27;56.64
6853;BME280;3465;42.144;24.722;2022-07-04T06:27:47;99668.72;;;25.37;55.39
6853;BME280;3465;42.144;24.722;2022-07-04T06:30:14;99670.03;;;25.47;54.94
6853;BME280;3465;42.144;24.722;2022-07-04T06:33:00;99675.47;;;25.62;55.27
6853;BME280;3465;42.144;24.722;2022-07-04T06:35:28;99677.44;;;25.77;53.64
6853;BME280;3465;42.144;24.722;2022-07-04T06:38:22;99683.59;;;25.96;52.41
6853;BME280;3465;42.144;24.722;2022-07-04T06:40:56;99667.31;;;26.07;52.38
6853;BME280;3465;42.144;24.722;2022-07-04T06:43:23;99670.25;;;26.19;52.40
6853;BME280;3465;42.144;24.722;2022-07-04T06:45:48;99662.50;;;26.35;51.94
6853;BME280;3465;42.144;24.722;2022-07-04T06:48:14;99667.44;;;26.59;50.08
6853;BME280;3465;42.144;24.722;2022-07-04T06:50:42;99671.56;;;26.84;49.71
6853;BME280;3465;42.144;24.722;2022-07-04T06:53:09;99661.81;;;27.03;49.11
6853;BME280;3465;42.144;24.722;2022-07-04T06:55:38;99648.97;;;27.14;48.59
6853;BME280;3465;42.144;24.722;2022-07-04T06:58:04;99659.84;;;27.42;48.05
6853;BME280;3465;42.144;24.722;2022-07-04T07:00:30;99660.91;;;27.55;48.22
6853;BME280;3465;42.144;24.722;2022-07-04T07:02:57;99653.13;;;27.69;47.65
6853;BME280;3465;42.144;24.722;2022-07-04T07:05:23;99648.13;;;27.80;47.88
6853;BME280;3465;42.144;24.722;2022-07-04T07:07:49;99647.78;;;28.03;47.70
6853;BME280;3465;42.144;24.722;2022-07-04T07:10:15;99636.72;;;28.28;46.93
6853;BME280;3465;42.144;24.722;2022-07-04T07:12:40;99641.00;;;28.61;47.03
6853;BME280;3465;42.144;24.722;2022-07-04T07:15:06;99633.41;;;29.00;46.06
6853;BME280;3465;42.144;24.722;2022-07-04T07:17:31;99642.25;;;29.59;44.04
6853;BME280;3465;42.144;24.722;2022-07-04T07:19:57;99642.38;;;30.13;42.27
6853;BME280;3465;42.144;24.722;2022-07-04T07:22:22;99651.69;;;30.88;41.97
6853;BME280;3465;42.144;24.722;2022-07-04T07:24:47;99651.31;;;31.45;40.57
6853;BME280;3465;42.144;24.722;2022-07-04T07:27:13;99631.53;;;32.12;38.79
6853;BME280;3465;42.144;24.722;2022-07-04T07:29:38;99651.66;;;32.52;37.73
6853;BME280;3465;42.144;24.722;2022-07-04T07:32:05;99649.72;;;32.78;37.89
6853;BME280;3465;42.144;24.722;2022-07-04T07:34:31;99653.34;;;32.53;38.52
6853;BME280;3465;42.144;24.722;2022-07-04T07:36:57;99655.41;;;33.20;37.14
6853;BME280;3465;42.144;24.722;2022-07-04T07:39:22;99657.88;;;34.13;34.74
6853;BME280;3465;42.144;24.722;2022-07-04T07:41:47;99657.44;;;35.05;33.81
6853;BME280;3465;42.144;24.722;2022-07-04T07:44:13;99664.78;;;35.85;32.49
6853;BME280;3465;42.144;24.722;2022-07-04T07:46:38;99665.03;;;36.03;32.56
6853;BME280;3465;42.144;24.722;2022-07-04T07:49:04;99669.44;;;36.53;31.25
6853;BME280;3465;42.144;24.722;2022-07-04T07:51:30;99678.13;;;37.52;30.55
6853;BME280;3465;42.144;24.722;2022-07-04T07:53:55;99676.97;;;37.64;29.78
6853;BME280;3465;42.144;24.722;2022-07-04T07:56:22;99679.53;;;37.75;29.90
6853;BME280;3465;42.144;24.722;2022-07-04T07:58:48;99669.69;;;38.39;29.57
6853;BME280;3465;42.144;24.722;2022-07-04T08:01:13;99669.59;;;38.58;28.82
6853;BME280;3465;42.144;24.722;2022-07-04T08:03:38;99661.47;;;38.40;28.53
6853;BME280;3465;42.144;24.722;2022-07-04T08:06:22;99678.09;;;39.16;27.74
6853;BME280;3465;42.144;24.722;2022-07-04T08:08:48;99661.09;;;39.50;27.70
6853;BME280;3465;42.144;24.722;2022-07-04T08:11:13;99659.19;;;38.90;27.95
6853;BME280;3465;42.144;24.722;2022-07-04T08:13:40;99676.22;;;40.28;26.74
6853;BME280;3465;42.144;24.722;2022-07-04T08:16:06;99669.09;;;40.61;26.50
6853;BME280;3465;42.144;24.722;2022-07-04T08:18:32;99667.38;;;41.26;25.53
6853;BME280;3465;42.144;24.722;2022-07-04T08:20:58;99664.38;;;41.53;25.24
6853;BME280;3465;42.144;24.722;2022-07-04T08:23:24;99669.34;;;41.88;24.61
6853;BME280;3465;42.144;24.722;2022-07-04T08:25:50;99668.84;;;41.84;24.97
6853;BME280;3465;42.144;24.722;2022-07-04T08:28:15;99668.88;;;41.76;24.88
6853;BME280;3465;42.144;24.722;2022-07-04T08:30:41;99672.56;;;42.77;23.74
6853;BME280;3465;42.144;24.722;2022-07-04T08:33:06;99675.78;;;43.03;23.46
6853;BME280;3465;42.144;24.722;2022-07-04T08:35:32;99671.78;;;43.21;23.31
6853;BME280;3465;42.144;24.722;2022-07-04T08:37:59;99676.31;;;42.98;22.66
6853;BME280;3465;42.144;24.722;2022-07-04T08:40:29;99672.13;;;42.34;23.24
6853;BME280;3465;42.144;24.722;2022-07-04T08:42:55;99676.56;;;43.11;23.07
6853;BME280;3465;42.144;24.722;2022-07-04T08:45:25;99669.00;;;43.07;23.39
6853;BME280;3465;42.144;24.722;2022-07-04T08:47:52;99682.97;;;43.55;22.98
6853;BME280;3465;42.144;24.722;2022-07-04T08:50:26;99683.09;;;44.28;21.95
6853;BME280;3465;42.144;24.722;2022-07-04T08:52:54;99689.44;;;44.35;21.89
6853;BME280;3465;42.144;24.722;2022-07-04T08:55:22;99674.19;;;44.34;21.26
6853;BME280;3465;42.144;24.722;2022-07-04T08:58:07;99674.88;;;43.33;22.54
6853;BME280;3465;42.144;24.722;2022-07-04T09:00:54;99672.06;;;43.04;22.45
6853;BME280;3465;42.144;24.722;2022-07-04T09:03:20;99675.81;;;42.64;22.28
6853;BME280;3465;42.144;24.722;2022-07-04T09:05:47;99665.50;;;41.66;21.80
6853;BME280;3465;42.144;24.722;2022-07-04T09:08:12;99674.44;;;41.51;22.01
6853;BME280;3465;42.144;24.722;2022-07-04T09:10:38;99662.63;;;42.30;22.55
6853;BME280;3465;42.144;24.722;2022-07-04T09:13:08;99666.31;;;41.83;21.55
6853;BME280;3465;42.144;24.722;2022-07-04T09:15:34;99661.13;;;42.97;21.45
6853;BME280;3465;42.144;24.722;2022-07-04T09:18:01;99676.06;;;44.19;20.47
6853;BME280;3465;42.144;24.722;2022-07-04T09:20:28;99668.97;;;44.33;20.04
6853;BME280;3465;42.144;24.722;2022-07-04T09:22:54;99667.03;;;44.77;19.43
6853;BME280;3465;42.144;24.722;2022-07-04T09:25:21;99667.81;;;44.56;19.09
6853;BME280;3465;42.144;24.722;2022-07-04T09:27:52;99661.19;;;44.15;19.79
6853;BME280;3465;42.144;24.722;2022-07-04T09:30:20;99659.25;;;43.20;19.82
6853;BME280;3465;42.144;24.722;2022-07-04T09:32:50;99640.28;;;43.95;20.23
6853;BME280;3465;42.144;24.722;2022-07-04T09:35:24;99656.78;;;43.33;18.96
6853;BME280;3465;42.144;24.722;2022-07-04T09:37:51;99644.22;;;42.95;20.03
6853;BME280;3465;42.144;24.722;2022-07-04T09:40:31;99635.47;;;43.16;19.72
6853;BME280;3465;42.144;24.722;2022-07-04T09:43:01;99654.47;;;43.45;19.13
6853;BME280;3465;42.144;24.722;2022-07-04T09:45:27;99644.38;;;43.61;19.31
6853;BME280;3465;42.144;24.722;2022-07-04T09:47:57;99649.25;;;44.60;19.16
6853;BME280;3465;42.144;24.722;2022-07-04T09:50:25;99654.94;;;43.86;18.69
6853;BME280;3465;42.144;24.722;2022-07-04T09:52:59;99656.19;;;43.60;18.24
6853;BME280;3465;42.144;24.722;2022-07-04T09:58:00;99651.47;;;43.40;18.94
6853;BME280;3465;42.144;24.722;2022-07-04T10:00:31;99643.66;;;43.97;18.63
6853;BME280;3465;42.144;24.722;2022-07-04T10:03:24;99667.63;;;43.85;18.32
6853;BME280;3465;42.144;24.722;2022-07-04T10:08:33;99644.22;;;41.79;19.79
6853;BME280;3465;42.144;24.722;2022-07-04T10:11:00;99633.66;;;41.05;20.19
6853;BME280;3465;42.144;24.722;2022-07-04T10:13:26;99633.09;;;41.82;20.48
6853;BME280;3465;42.144;24.722;2022-07-04T10:15:52;99617.75;;;41.83;20.10
6853;BME280;3465;42.144;24.722;2022-07-04T10:18:18;99623.09;;;40.46;21.23
6853;BME280;3465;42.144;24.722;2022-07-04T10:20:45;99614.84;;;40.48;20.58
6853;BME280;3465;42.144;24.722;2022-07-04T10:23:11;99619.88;;;40.35;20.81
6853;BME280;3465;42.144;24.722;2022-07-04T10:25:37;99601.22;;;40.08;21.23
6853;BME280;3465;42.144;24.722;2022-07-04T10:28:03;99611.31;;;40.06;21.76
6853;BME280;3465;42.144;24.722;2022-07-04T10:30:30;99614.34;;;40.44;21.17
6853;BME280;3465;42.144;24.722;2022-07-04T10:33:03;99617.00;;;42.05;20.73
6853;BME280;3465;42.144;24.722;2022-07-04T10:36:01;99616.38;;;43.09;19.88
6853;BME280;3465;42.144;24.722;2022-07-04T10:38:32;99624.13;;;43.35;18.99
6853;BME280;3465;42.144;24.722;2022-07-04T10:41:05;99620.84;;;44.06;18.75
6853;BME280;3465;42.144;24.722;2022-07-04T10:48:28;99599.63;;;40.72;20.92
6853;BME280;3465;42.144;24.722;2022-07-04T10:51:05;99586.34;;;39.87;21.97
6853;BME280;3465;42.144;24.722;2022-07-04T10:53:33;99576.97;;;40.49;21.16
6853;BME280;3465;42.144;24.722;2022-07-04T10:58:43;99591.84;;;41.26;21.51
6853;BME280;3465;42.144;24.722;2022-07-04T11:01:13;99569.47;;;40.93;21.15
6853;BME280;3465;42.144;24.722;2022-07-04T11:09:14;99584.13;;;42.63;20.55
6853;BME280;3465;42.144;24.722;2022-07-04T11:12:02;99581.38;;;42.09;21.00
6853;BME280;3465;42.144;24.722;2022-07-04T11:14:35;99571.97;;;40.78;21.88
6853;BME280;3465;42.144;24.722;2022-07-04T11:17:03;99569.44;;;41.09;21.97
6853;BME280;3465;42.144;24.722;2022-07-04T11:19:29;99553.94;;;41.35;21.92
6853;BME280;3465;42.144;24.722;2022-07-04T11:21:55;99577.16;;;40.64;21.70
6853;BME280;3465;42.144;24.722;2022-07-04T11:24:22;99569.78;;;40.08;23.00
6853;BME280;3465;42.144;24.722;2022-07-04T11:26:47;99571.03;;;40.30;23.13
6853;BME280;3465;42.144;24.722;2022-07-04T11:29:13;99562.38;;;41.24;21.85
6853;BME280;3465;42.144;24.722;2022-07-04T11:31:43;99557.09;;;40.66;22.40
6853;BME280;3465;42.144;24.722;2022-07-04T11:34:09;99545.66;;;39.65;22.75
6853;BME280;3465;42.144;24.722;2022-07-04T11:36:36;99545.78;;;38.16;24.21
6853;BME280;3465;42.144;24.722;2022-07-04T11:39:04;99536.53;;;37.18;26.37
6853;BME280;3465;42.144;24.722;2022-07-04T11:41:32;99519.22;;;37.59;25.83
6853;BME280;3465;42.144;24.722;2022-07-04T11:44:19;99525.69;;;38.11;25.22
6853;BME280;3465;42.144;24.722;2022-07-04T11:47:20;99530.47;;;37.16;26.04
6853;BME280;3465;42.144;24.722;2022-07-04T11:49:53;99533.97;;;37.36;25.99
6853;BME280;3465;42.144;24.722;2022-07-04T11:54:49;99528.59;;;37.36;25.67
6853;BME280;3465;42.144;24.722;2022-07-04T12:40:28;99491.94;;;38.96;23.53
6853;BME280;3465;42.144;24.722;2022-07-04T12:42:55;99501.22;;;38.41;23.44
6853;BME280;3465;42.144;24.722;2022-07-04T12:45:21;99491.16;;;38.25;23.34
6853;BME280;3465;42.144;24.722;2022-07-04T12:47:48;99497.72;;;38.58;23.48
6853;BME280;3465;42.144;24.722;2022-07-04T12:50:13;99488.44;;;38.08;23.44
6853;BME280;3465;42.144;24.722;2022-07-04T12:52:39;99489.78;;;36.75;25.10
6853;BME280;3465;42.144;24.722;2022-07-04T12:55:07;99485.41;;;36.26;24.77
6853;BME280;3465;42.144;24.722;2022-07-04T12:57:35;99478.34;;;36.06;25.65
6853;BME280;3465;42.144;24.722;2022-07-04T13:00:00;99459.97;;;35.73;25.23
6853;BME280;3465;42.144;24.722;2022-07-04T13:02:26;99445.72;;;35.63;25.94
6853;BME280;3465;42.144;24.722;2022-07-04T13:04:51;99469.25;;;35.69;25.40
6853;BME280;3465;42.144;24.722;2022-07-04T13:07:20;99472.75;;;35.69;26.18
6853;BME280;3465;42.144;24.722;2022-07-04T13:09:46;99467.72;;;35.76;25.66
6853;BME280;3465;42.144;24.722;2022-07-04T13:12:12;99469.06;;;35.61;25.18
6853;BME280;3465;42.144;24.722;2022-07-04T13:14:55;99470.44;;;35.55;25.73
6853;BME280;3465;42.144;24.722;2022-07-04T13:17:21;99462.34;;;35.36;26.14
6853;BME280;3465;42.144;24.722;2022-07-04T13:19:48;99460.78;;;35.34;26.02
6853;BME280;3465;42.144;24.722;2022-07-04T13:22:13;99453.94;;;35.11;25.00
6853;BME280;3465;42.144;24.722;2022-07-04T13:24:39;99451.44;;;35.19;26.04
6853;BME280;3465;42.144;24.722;2022-07-04T13:27:05;99456.09;;;34.96;25.85
6853;BME280;3465;42.144;24.722;2022-07-04T13:29:30;99435.00;;;34.93;26.42
6853;BME280;3465;42.144;24.722;2022-07-04T13:31:56;99444.75;;;34.94;26.06
6853;BME280;3465;42.144;24.722;2022-07-04T13:34:21;99393.44;;;34.70;25.50
6853;BME280;3465;42.144;24.722;2022-07-04T13:36:46;99456.44;;;35.03;25.74
6853;BME280;3465;42.144;24.722;2022-07-04T13:39:12;99449.34;;;34.72;25.59
6853;BME280;3465;42.144;24.722;2022-07-04T13:41:38;99436.72;;;34.53;25.26
6853;BME280;3465;42.144;24.722;2022-07-04T13:44:05;99447.03;;;34.67;25.36
6853;BME280;3465;42.144;24.722;2022-07-04T13:46:32;99432.16;;;34.44;25.93
6853;BME280;3465;42.144;24.722;2022-07-04T13:49:04;99427.00;;;34.31;25.30
6853;BME280;3465;42.144;24.722;2022-07-04T13:51:30;99426.53;;;34.26;26.10
6853;BME280;3465;42.144;24.722;2022-07-04T13:53:55;99419.13;;;34.30;26.00
6853;BME280;3465;42.144;24.722;2022-07-04T13:56:21;99421.06;;;34.28;25.67
6853;BME280;3465;42.144;24.722;2022-07-04T13:58:47;99419.44;;;34.36;25.82
6853;BME280;3465;42.144;24.722;2022-07-04T14:01:12;99417.19;;;34.21;25.82
6853;BME280;3465;42.144;24.722;2022-07-04T14:03:40;99395.13;;;33.98;25.92
6853;BME280;3465;42.144;24.722;2022-07-04T14:06:06;99393.09;;;33.91;26.65
6853;BME280;3465;42.144;24.722;2022-07-04T14:08:31;99414.03;;;33.95;26.06
6853;BME280;3465;42.144;24.722;2022-07-04T14:10:57;99384.91;;;33.72;26.49
6853;BME280;3465;42.144;24.722;2022-07-04T14:13:22;99393.97;;;33.80;26.33